createdAt,value
2023-02-17T00:00:59.683Z,101895.84
2023-02-17T00:03:27.786Z,101887.63
2023-02-17T00:05:55.612Z,101884.78
2023-02-17T00:08:23.328Z,101885.75
2023-02-17T00:10:58.761Z,101887.94
2023-02-17T00:13:26.959Z,101884.47
2023-02-17T00:15:56.190Z,101878.38
2023-02-17T00:18:24.442Z,101879.28
2023-02-17T00:20:53.019Z,101873.41
2023-02-17T00:23:20.800Z,101869.72
2023-02-17T00:25:48.535Z,101867.97
2023-02-17T00:28:16.289Z,101875.25
2023-02-17T00:30:44.075Z,101871.03
2023-02-17T00:33:13.153Z,101884.69
2023-02-17T00:35:42.636Z,101891.00
2023-02-17T00:38:10.448Z,101874.53
2023-02-17T00:40:39.005Z,101882.00
2023-02-17T00:43:06.811Z,101870.06
2023-02-17T00:45:34.637Z,101864.72
2023-02-17T00:48:02.442Z,101861.50
2023-02-17T00:50:31.558Z,101860.75
2023-02-17T00:52:59.317Z,101862.91
2023-02-17T00:55:27.290Z,101867.56
2023-02-17T00:57:55.164Z,101873.72
2023-02-17T01:00:23.318Z,101868.44
2023-02-17T01:02:51.045Z,101872.88
2023-02-17T01:05:18.995Z,101859.22
2023-02-17T01:07:48.100Z,101870.06
2023-02-17T01:10:15.956Z,101871.03
2023-02-17T01:12:43.722Z,101859.44
2023-02-17T01:15:11.989Z,101864.09
2023-02-17T01:17:39.777Z,101860.53
2023-02-17T01:20:08.839Z,101865.84
2023-02-17T01:22:36.587Z,101878.72
2023-02-17T01:25:06.361Z,101875.06
2023-02-17T01:27:34.236Z,101891.44
2023-02-17T01:30:02.021Z,101879.59
2023-02-17T01:32:29.811Z,101895.97
2023-02-17T01:34:57.514Z,101875.47
2023-02-17T01:37:25.256Z,101872.84
2023-02-17T01:39:53.036Z,101857.59
2023-02-17T01:42:22.088Z,101854.13
2023-02-17T01:45:32.279Z,101856.28
2023-02-17T01:48:04.350Z,101848.16
2023-02-17T01:50:38.266Z,101840.69
2023-02-17T01:53:10.021Z,101843.28
2023-02-17T01:55:41.012Z,101845.22
2023-02-17T01:58:15.089Z,101850.63
2023-02-17T02:00:43.872Z,101855.09
2023-02-17T02:03:15.137Z,101847.41
2023-02-17T02:05:43.646Z,101843.06
2023-02-17T02:08:13.255Z,101848.59
2023-02-17T02:10:40.972Z,101837.84
2023-02-17T02:13:10.622Z,101823.00
2023-02-17T02:15:44.660Z,101816.75
2023-02-17T02:18:37.982Z,101807.31
2023-02-17T02:21:34.619Z,101806.41
2023-02-17T02:24:26.749Z,101801.00
2023-02-17T02:27:31.180Z,101797.13
2023-02-17T02:30:23.890Z,101804.28
2023-02-17T02:33:04.759Z,101801.34
2023-02-17T02:35:43.985Z,101798.88
2023-02-17T02:38:17.162Z,101795.50
2023-02-17T02:40:50.186Z,101796.66
2023-02-17T02:43:18.515Z,101793.97
2023-02-17T02:45:46.262Z,101782.34
2023-02-17T02:48:15.341Z,101791.25
2023-02-17T02:50:58.454Z,101792.19
2023-02-17T02:53:46.106Z,101786.72
2023-02-17T02:56:28.429Z,101790.94
2023-02-17T02:59:07.311Z,101789.97
2023-02-17T03:01:43.740Z,101783.59
2023-02-17T03:04:20.261Z,101778.16
2023-02-17T03:06:52.597Z,101762.88
2023-02-17T03:09:26.452Z,101784.31
2023-02-17T03:11:54.469Z,101786.28
2023-02-17T03:14:23.150Z,101774.13
2023-02-17T03:16:52.076Z,101764.19
2023-02-17T03:19:24.539Z,101754.19
2023-02-17T03:21:57.833Z,101747.94
2023-02-17T03:24:25.748Z,101754.00
2023-02-17T03:26:53.479Z,101743.56
2023-02-17T03:29:21.184Z,101731.75
2023-02-17T03:31:49.046Z,101720.91
2023-02-17T03:34:16.823Z,101730.78
2023-02-17T03:36:45.906Z,101727.97
2023-02-17T03:39:13.631Z,101728.72
2023-02-17T03:41:41.375Z,101732.28
2023-02-17T03:44:09.166Z,101718.84
2023-02-17T03:46:39.430Z,101724.28
2023-02-17T03:49:07.191Z,101715.81
2023-02-17T03:51:35.028Z,101735.75
2023-02-17T03:54:04.159Z,101739.13
2023-02-17T03:56:31.953Z,101748.09
2023-02-17T03:58:59.783Z,101733.47
2023-02-17T04:01:27.557Z,101739.00
2023-02-17T04:03:55.441Z,101744.31
2023-02-17T04:06:23.262Z,101739.84
2023-02-17T04:08:50.978Z,101745.06
2023-02-17T04:11:20.199Z,101742.69
2023-02-17T04:13:47.942Z,101745.38
2023-02-17T04:16:15.702Z,101757.84
2023-02-17T04:18:43.395Z,101765.91
2023-02-17T04:21:11.409Z,101767.41
2023-02-17T04:23:39.491Z,101767.59
2023-02-17T04:26:09.151Z,101771.31
2023-02-17T04:28:39.061Z,101753.31
2023-02-17T04:31:06.945Z,101754.16
2023-02-17T04:33:35.018Z,101748.75
2023-02-17T04:36:03.228Z,101745.91
2023-02-17T04:38:33.277Z,101749.00
2023-02-17T04:41:01.920Z,101743.44
2023-02-17T04:43:29.669Z,101746.91
2023-02-17T04:45:59.367Z,101728.81
2023-02-17T04:48:27.942Z,101724.22
2023-02-17T04:50:55.672Z,101729.66
2023-02-17T04:53:23.561Z,101723.19
2023-02-17T04:55:53.732Z,101733.91
2023-02-17T04:58:22.179Z,101725.53
2023-02-17T05:00:51.502Z,101716.88
2023-02-17T05:03:20.637Z,101747.66
2023-02-17T05:05:48.423Z,101752.09
2023-02-17T05:08:16.176Z,101761.97
2023-02-17T05:10:43.920Z,101765.31
2023-02-17T05:13:11.850Z,101767.16
2023-02-17T05:15:39.697Z,101760.34
2023-02-17T05:18:07.438Z,101761.97
2023-02-17T05:20:36.596Z,101750.16
2023-02-17T05:23:04.399Z,101752.88
2023-02-17T05:25:32.683Z,101759.91
2023-02-17T05:28:00.408Z,101751.66
2023-02-17T05:30:28.277Z,101743.31
2023-02-17T05:32:56.529Z,101741.56
2023-02-17T05:35:24.321Z,101737.00
2023-02-17T05:37:53.570Z,101734.41
2023-02-17T05:40:21.600Z,101734.22
2023-02-17T05:42:49.362Z,101737.78
2023-02-17T05:45:17.329Z,101726.59
2023-02-17T05:47:45.245Z,101731.13
2023-02-17T05:50:13.190Z,101717.50
2023-02-17T05:52:40.949Z,101717.50
2023-02-17T05:55:10.202Z,101711.31
2023-02-17T05:57:37.995Z,101697.97
2023-02-17T06:00:06.867Z,101702.41
2023-02-17T06:02:34.669Z,101705.75
2023-02-17T06:05:02.534Z,101702.06
2023-02-17T06:07:30.372Z,101707.38
2023-02-17T06:09:58.311Z,101697.63
2023-02-17T06:12:27.558Z,101701.09
2023-02-17T06:14:55.295Z,101699.25
2023-02-17T06:17:23.085Z,101706.19
2023-02-17T06:19:50.981Z,101720.47
2023-02-17T06:22:18.787Z,101717.03
2023-02-17T06:24:46.641Z,101707.81
2023-02-17T06:27:14.596Z,101696.19
2023-02-17T06:29:44.519Z,101702.47
2023-02-17T06:32:12.434Z,101695.09
2023-02-17T06:34:40.324Z,101708.31
2023-02-17T06:37:08.257Z,101710.19
2023-02-17T06:39:35.965Z,101695.75
2023-02-17T06:42:03.753Z,101702.13
2023-02-17T06:44:31.646Z,101707.69
2023-02-17T06:47:00.766Z,101701.03
2023-02-17T06:49:28.530Z,101682.94
2023-02-17T06:51:56.298Z,101688.13
2023-02-17T06:54:24.118Z,101684.44
2023-02-17T06:56:51.917Z,101680.75
2023-02-17T06:59:19.630Z,101686.16
2023-02-17T07:01:49.470Z,101695.28
2023-02-17T07:04:18.709Z,101687.78
2023-02-17T07:06:46.519Z,101659.91
2023-02-17T07:09:14.357Z,101667.94
2023-02-17T07:11:44.526Z,101668.78
2023-02-17T07:14:12.622Z,101662.41
2023-02-17T07:16:40.499Z,101676.59
2023-02-17T07:19:08.391Z,101683.75
2023-02-17T07:21:37.457Z,101677.22
2023-02-17T07:24:05.429Z,101690.53
2023-02-17T07:26:33.162Z,101705.84
2023-02-17T07:29:01.765Z,101709.66
2023-02-17T07:31:29.718Z,101707.56
2023-02-17T07:33:57.628Z,101703.13
2023-02-17T07:36:25.432Z,101687.59
2023-02-17T07:38:54.755Z,101681.94
2023-02-17T07:41:24.700Z,101678.38
2023-02-17T07:43:55.997Z,101692.69
2023-02-17T07:46:24.567Z,101691.47
2023-02-17T07:48:52.304Z,101690.38
2023-02-17T07:51:22.162Z,101696.78
2023-02-17T07:53:51.184Z,101690.63
2023-02-17T07:56:21.881Z,101681.25
2023-02-17T07:58:49.929Z,101686.66
2023-02-17T08:01:19.633Z,101694.81
2023-02-17T08:03:48.474Z,101700.75
2023-02-17T08:06:18.476Z,101722.22
2023-02-17T08:09:03.841Z,101717.53
2023-02-17T08:11:51.724Z,101725.47
2023-02-17T08:14:21.722Z,101716.34
2023-02-17T08:16:49.569Z,101731.66
2023-02-17T08:19:17.394Z,101737.78
2023-02-17T08:21:45.207Z,101740.75
2023-02-17T08:24:13.588Z,101735.34
2023-02-17T08:26:42.898Z,101739.66
2023-02-17T08:29:10.646Z,101738.78
2023-02-17T08:31:38.974Z,101730.75
2023-02-17T08:34:08.891Z,101729.78
2023-02-17T08:36:37.958Z,101740.63
2023-02-17T08:39:06.548Z,101752.97
2023-02-17T08:41:36.985Z,101759.03
2023-02-17T08:44:10.022Z,101755.97
2023-02-17T08:46:38.347Z,101755.13
2023-02-17T08:49:06.817Z,101741.78
2023-02-17T08:51:35.983Z,101756.44
2023-02-17T08:54:06.499Z,101729.72
2023-02-17T08:56:35.764Z,101739.56
2023-02-17T08:59:03.947Z,101739.22
2023-02-17T09:01:33.241Z,101744.31
2023-02-17T09:04:02.740Z,101752.66
2023-02-17T09:06:35.474Z,101751.69
2023-02-17T09:09:04.278Z,101736.16
2023-02-17T09:11:32.144Z,101757.88
2023-02-17T09:13:59.952Z,101757.75
2023-02-17T09:16:27.839Z,101761.22
2023-02-17T09:18:57.254Z,101750.50
2023-02-17T09:21:25.657Z,101752.31
2023-02-17T09:23:54.047Z,101776.41
2023-02-17T09:26:22.291Z,101781.34
2023-02-17T09:28:52.771Z,101771.97
2023-02-17T09:31:24.799Z,101787.91
2023-02-17T09:33:53.155Z,101781.97
2023-02-17T09:36:25.069Z,101774.66
2023-02-17T09:38:53.615Z,101767.63
2023-02-17T09:41:25.800Z,101746.88
2023-02-17T09:43:54.761Z,101771.22
2023-02-17T09:46:28.772Z,101762.19
2023-02-17T09:49:00.269Z,101768.25
2023-02-17T09:51:35.680Z,101770.97
2023-02-17T09:54:09.695Z,101770.00
2023-02-17T09:56:41.109Z,101773.34
2023-02-17T09:59:16.031Z,101776.69
2023-02-17T10:01:45.445Z,101778.44
2023-02-17T10:04:18.352Z,101748.56
2023-02-17T10:06:49.790Z,101779.06
2023-02-17T10:09:24.366Z,101774.00
2023-02-17T10:11:57.486Z,101795.97
2023-02-17T10:14:30.260Z,101786.09
2023-02-17T10:17:04.169Z,101789.66
2023-02-17T10:19:36.763Z,101795.72
2023-02-17T10:22:10.366Z,101818.44
2023-02-17T10:24:38.108Z,101806.94
2023-02-17T10:27:25.890Z,101822.25
2023-02-17T10:30:05.824Z,101835.06
2023-02-17T10:32:50.766Z,101809.56
2023-02-17T10:35:23.833Z,101801.63
2023-02-17T10:38:01.414Z,101803.75
2023-02-17T10:40:30.324Z,101815.25
2023-02-17T10:43:01.276Z,101814.03
2023-02-17T10:45:32.793Z,101820.81
2023-02-17T10:48:04.790Z,101800.88
2023-02-17T10:50:32.826Z,101800.66
2023-02-17T10:53:01.973Z,101798.91
2023-02-17T10:55:38.096Z,101796.63
2023-02-17T10:58:12.348Z,101798.16
2023-02-17T11:00:42.869Z,101814.91
2023-02-17T11:03:20.664Z,101813.91
2023-02-17T11:05:56.027Z,101816.75
2023-02-17T11:08:35.032Z,101829.59
2023-02-17T11:11:05.411Z,101838.97
2023-02-17T11:13:36.980Z,101853.00
2023-02-17T11:16:05.991Z,101844.22
2023-02-17T11:18:39.089Z,101837.06
2023-02-17T11:21:09.139Z,101820.53
2023-02-17T11:23:49.411Z,101819.41
2023-02-17T11:26:22.755Z,101850.31
2023-02-17T11:28:50.642Z,101827.69
2023-02-17T11:31:25.310Z,101830.88
2023-02-17T11:33:55.201Z,101827.06
2023-02-17T11:36:26.372Z,101824.34
2023-02-17T11:38:55.767Z,101815.56
2023-02-17T11:41:23.605Z,101837.91
2023-02-17T11:43:56.122Z,101840.00
2023-02-17T11:46:34.850Z,101825.78
2023-02-17T11:49:38.345Z,101842.50
2023-02-17T11:52:20.873Z,101848.56
2023-02-17T11:55:09.119Z,101858.31
2023-02-17T11:57:42.496Z,101868.69
2023-02-17T12:00:17.683Z,101882.25
2023-02-17T12:03:18.422Z,101877.91
2023-02-17T12:05:57.218Z,101878.78
2023-02-17T12:08:34.614Z,101873.97
2023-02-17T12:11:15.029Z,101886.34
2023-02-17T12:13:56.515Z,101865.38
2023-02-17T12:16:39.508Z,101871.13
2023-02-17T12:19:20.568Z,101881.25
2023-02-17T12:21:59.237Z,101886.34
2023-02-17T12:24:42.321Z,101878.31
2023-02-17T12:27:25.259Z,101885.81
2023-02-17T12:30:21.725Z,101881.72
2023-02-17T12:33:06.988Z,101885.53
2023-02-17T12:35:44.041Z,101903.81
2023-02-17T12:38:16.770Z,101906.53
2023-02-17T12:40:48.503Z,101920.75
2023-02-17T12:43:26.395Z,101926.78
2023-02-17T12:45:57.952Z,101939.38
2023-02-17T12:48:30.699Z,101928.75
2023-02-17T12:51:04.467Z,101921.13
2023-02-17T12:53:45.684Z,101929.50
2023-02-17T12:56:41.040Z,101935.38
2023-02-17T12:59:16.939Z,101950.69
2023-02-17T13:01:53.278Z,101954.41
2023-02-17T13:04:24.726Z,101939.63
2023-02-17T13:06:58.351Z,101936.66
2023-02-17T13:09:33.200Z,101940.94
2023-02-17T13:12:33.296Z,101929.88
2023-02-17T13:15:04.582Z,101926.91
2023-02-17T13:17:37.379Z,101925.81
2023-02-17T13:20:26.837Z,101932.22
2023-02-17T13:23:08.397Z,101934.06
2023-02-17T13:25:37.905Z,101951.34
2023-02-17T13:28:19.155Z,101935.81
2023-02-17T13:30:52.270Z,101938.91
2023-02-17T13:33:31.964Z,101955.00
2023-02-17T13:35:59.872Z,101938.69
2023-02-17T13:38:29.920Z,101934.25
2023-02-17T13:41:02.086Z,101937.22
2023-02-17T13:43:31.842Z,101928.06
2023-02-17T13:46:03.046Z,101932.50
2023-02-17T13:48:32.933Z,101936.09
2023-02-17T13:51:02.120Z,101944.78
2023-02-17T13:53:32.635Z,101945.63
2023-02-17T13:56:02.192Z,101950.22
2023-02-17T13:58:31.999Z,101933.16
2023-02-17T14:01:02.952Z,101929.56
2023-02-17T14:03:35.988Z,101923.16
2023-02-17T14:06:04.911Z,101932.81
2023-02-17T14:08:37.011Z,101914.56
2023-02-17T14:11:10.228Z,101919.97
2023-02-17T14:13:41.093Z,101921.09
2023-02-17T14:16:28.436Z,101922.44
2023-02-17T14:19:03.952Z,101922.69
2023-02-17T14:21:31.802Z,101922.44
2023-02-17T14:24:00.683Z,101929.75
2023-02-17T14:26:32.201Z,101943.09
2023-02-17T14:29:02.663Z,101939.97
2023-02-17T14:31:38.848Z,101948.84
2023-02-17T14:34:14.215Z,101936.03
2023-02-17T14:36:42.247Z,101938.63
2023-02-17T14:39:15.962Z,101938.56
2023-02-17T14:41:44.072Z,101935.59
2023-02-17T14:44:12.078Z,101943.75
2023-02-17T14:46:41.280Z,101930.59
2023-02-17T14:49:09.113Z,101922.44
2023-02-17T14:51:38.542Z,101930.59
2023-02-17T14:54:14.976Z,101946.59
2023-02-17T14:56:47.722Z,101938.88
2023-02-17T14:59:15.536Z,101955.94
2023-02-17T15:01:44.742Z,101959.72
2023-02-17T15:04:12.558Z,101966.03
2023-02-17T15:06:42.564Z,101961.47
2023-02-17T15:09:13.487Z,101962.22
2023-02-17T15:11:45.543Z,101962.03
2023-02-17T15:14:15.869Z,101961.78
2023-02-17T15:16:45.182Z,101964.50
2023-02-17T15:19:14.173Z,101954.41
2023-02-17T15:21:46.463Z,101946.00
2023-02-17T15:24:17.053Z,101959.72
2023-02-17T15:26:44.889Z,101977.63
2023-02-17T15:29:17.590Z,102005.56
2023-02-17T15:31:47.607Z,101997.88
2023-02-17T15:34:17.716Z,101983.06
2023-02-17T15:36:45.591Z,101975.88
2023-02-17T15:39:14.604Z,101978.59
2023-02-17T15:41:43.189Z,101974.06
2023-02-17T15:44:16.728Z,101985.44
2023-02-17T15:46:46.860Z,101998.78
2023-02-17T15:49:16.831Z,102003.06
2023-02-17T15:51:44.744Z,102002.41
2023-02-17T15:54:12.993Z,102010.94
2023-02-17T15:56:45.081Z,102000.13
2023-02-17T15:59:17.436Z,102012.88
2023-02-17T16:01:46.616Z,102024.28
2023-02-17T16:04:15.865Z,102020.94
2023-02-17T16:06:44.038Z,102026.44
2023-02-17T16:09:11.894Z,102027.63
2023-02-17T16:11:49.960Z,102018.75
2023-02-17T16:14:24.776Z,102012.81
2023-02-17T16:16:54.085Z,102028.34
2023-02-17T16:19:22.326Z,102033.00
2023-02-17T16:21:50.167Z,102032.69
2023-02-17T16:24:17.936Z,102028.72
2023-02-17T16:26:45.823Z,102034.78
2023-02-17T16:29:16.205Z,102035.78
2023-02-17T16:31:44.445Z,102030.22
2023-02-17T16:34:17.033Z,102036.75
2023-02-17T16:36:45.559Z,102041.19
2023-02-17T16:39:16.532Z,102042.38
2023-02-17T16:41:44.457Z,102060.53
2023-02-17T16:44:14.467Z,102067.19
2023-02-17T16:46:48.497Z,102063.03
2023-02-17T16:49:24.804Z,102062.16
2023-02-17T16:51:52.922Z,102055.47
2023-02-17T16:54:20.766Z,102069.13
2023-02-17T16:56:50.902Z,102064.78
2023-02-17T16:59:21.767Z,102061.22
2023-02-17T17:01:51.036Z,102070.44
2023-02-17T17:04:20.961Z,102069.69
2023-02-17T17:06:51.177Z,102073.47
2023-02-17T17:09:21.414Z,102069.03
2023-02-17T17:11:49.601Z,102058.94
2023-02-17T17:14:17.420Z,102074.44
2023-02-17T17:16:51.843Z,102078.03
2023-02-17T17:19:21.500Z,102078.03
2023-02-17T17:21:49.554Z,102086.16
2023-02-17T17:24:17.391Z,102092.59
2023-02-17T17:26:46.696Z,102095.41
2023-02-17T17:29:16.462Z,102081.75
2023-02-17T17:31:44.968Z,102091.81
2023-02-17T17:34:12.851Z,102098.09
2023-02-17T17:36:43.858Z,102097.47
2023-02-17T17:39:16.213Z,102111.03
2023-02-17T17:41:44.281Z,102124.81
2023-02-17T17:44:12.110Z,102126.75
2023-02-17T17:46:40.838Z,102132.00
2023-02-17T17:49:10.381Z,102132.09
2023-02-17T17:51:39.567Z,102137.63
2023-02-17T17:54:09.327Z,102135.88
2023-02-17T17:56:38.850Z,102134.91
2023-02-17T17:59:07.332Z,102136.22
2023-02-17T18:01:35.419Z,102144.38
2023-02-17T18:04:04.485Z,102144.69
2023-02-17T18:06:35.738Z,102140.22
2023-02-17T18:09:06.334Z,102150.28
2023-02-17T18:11:36.481Z,102135.22
2023-02-17T18:14:08.801Z,102152.47
2023-02-17T18:16:38.805Z,102143.25
2023-02-17T18:19:09.025Z,102150.59
2023-02-17T18:21:37.117Z,102163.84
2023-02-17T18:24:05.078Z,102158.66
2023-02-17T18:26:32.930Z,102158.13
2023-02-17T18:29:02.646Z,102153.53
2023-02-17T18:31:30.799Z,102145.41
2023-02-17T18:33:58.627Z,102148.31
2023-02-17T18:36:28.163Z,102154.41
2023-02-17T18:38:56.214Z,102159.94
2023-02-17T18:41:27.170Z,102154.63
2023-02-17T18:43:55.823Z,102161.88
2023-02-17T18:46:26.895Z,102162.97
2023-02-17T18:48:55.111Z,102186.50
2023-02-17T18:51:24.140Z,102178.69
2023-02-17T18:53:52.499Z,102178.69
2023-02-17T18:56:22.545Z,102175.13
2023-02-17T18:58:52.164Z,102202.13
2023-02-17T19:01:22.531Z,102225.97
2023-02-17T19:03:52.320Z,102237.91
2023-02-17T19:06:23.059Z,102233.34
2023-02-17T19:08:52.426Z,102236.03
2023-02-17T19:11:21.954Z,102234.97
2023-02-17T19:13:50.308Z,102242.81
2023-02-17T19:16:20.255Z,102248.53
2023-02-17T19:18:48.629Z,102257.91
2023-02-17T19:21:18.093Z,102259.22
2023-02-17T19:23:45.998Z,102249.94
2023-02-17T19:26:15.152Z,102240.59
2023-02-17T19:28:43.267Z,102233.25
2023-02-17T19:31:13.385Z,102234.97
2023-02-17T19:33:41.201Z,102238.44
2023-02-17T19:36:10.221Z,102243.69
2023-02-17T19:38:39.478Z,102249.84
2023-02-17T19:41:09.335Z,102254.31
2023-02-17T19:43:37.111Z,102261.47
2023-02-17T19:46:05.495Z,102261.47
2023-02-17T19:48:33.411Z,102268.66
2023-02-17T19:51:03.281Z,102275.84
2023-02-17T19:53:32.018Z,102274.88
2023-02-17T19:56:11.974Z,102274.75
2023-02-17T19:58:40.640Z,102274.75
2023-02-17T20:01:09.939Z,102280.19
2023-02-17T20:03:38.257Z,102273.13
2023-02-17T20:06:09.139Z,102275.59
2023-02-17T20:08:38.218Z,102269.22
2023-02-17T20:11:08.717Z,102259.31
2023-02-17T20:13:45.274Z,102256.59
2023-02-17T20:16:15.197Z,102256.59
2023-02-17T20:18:45.599Z,102264.09
2023-02-17T20:21:15.905Z,102271.16
2023-02-17T20:23:44.864Z,102261.38
2023-02-17T20:26:16.945Z,102271.38
2023-02-17T20:28:44.791Z,102270.47
2023-02-17T20:31:12.776Z,102272.34
2023-02-17T20:33:41.533Z,102271.47
2023-02-17T20:36:11.217Z,102271.25
2023-02-17T20:38:39.015Z,102270.72
2023-02-17T20:41:08.656Z,102275.16
2023-02-17T20:43:38.940Z,102272.44
2023-02-17T20:46:07.521Z,102275.84
2023-02-17T20:48:35.620Z,102264.50
2023-02-17T20:51:05.739Z,102271.47
2023-02-17T20:53:33.729Z,102268.84
2023-02-17T20:56:01.619Z,102274.19
2023-02-17T20:58:29.377Z,102270.47
2023-02-17T21:00:58.543Z,102267.22
2023-02-17T21:03:26.387Z,102266.25
2023-02-17T21:05:54.089Z,102276.25
2023-02-17T21:08:21.815Z,102266.91
2023-02-17T21:10:50.107Z,102265.84
2023-02-17T21:13:17.914Z,102269.50
2023-02-17T21:15:46.634Z,102269.50
2023-02-17T21:18:16.139Z,102267.56
2023-02-17T21:20:43.995Z,102269.06
2023-02-17T21:23:12.986Z,102262.56
2023-02-17T21:25:40.734Z,102260.63
2023-02-17T21:28:08.612Z,102263.13
2023-02-17T21:30:36.386Z,102261.28
2023-02-17T21:33:04.115Z,102254.97
2023-02-17T21:35:33.266Z,102260.28
2023-02-17T21:38:01.030Z,102247.59
2023-02-17T21:40:28.789Z,102253.16
2023-02-17T21:43:13.986Z,102258.66
2023-02-17T21:45:44.592Z,102257.03
2023-02-17T21:48:12.829Z,102258.78
2023-02-17T21:50:41.952Z,102264.09
2023-02-17T21:53:09.794Z,102257.81
2023-02-17T21:55:37.602Z,102254.63
2023-02-17T21:58:05.427Z,102257.25
2023-02-17T22:00:33.273Z,102260.16
2023-02-17T22:03:01.108Z,102257.44
2023-02-17T22:05:31.462Z,102262.31
2023-02-17T22:08:00.591Z,102252.13
2023-02-17T22:10:28.350Z,102245.50
2023-02-17T22:12:56.084Z,102256.91
2023-02-17T22:15:26.582Z,102250.31
2023-02-17T22:17:54.289Z,102246.53
2023-02-17T22:20:22.820Z,102252.81
2023-02-17T22:22:50.611Z,102257.38
2023-02-17T22:25:20.368Z,102261.97
2023-02-17T22:27:48.369Z,102256.59
2023-02-17T22:30:16.600Z,102257.69
2023-02-17T22:32:44.448Z,102244.22
2023-02-17T22:35:12.375Z,102246.16
2023-02-17T22:37:40.207Z,102249.09
2023-02-17T22:40:09.459Z,102250.25
2023-02-17T22:42:38.766Z,102240.59
2023-02-17T22:45:07.326Z,102239.09
2023-02-17T22:47:35.249Z,102243.72
2023-02-17T22:50:03.099Z,102254.69
2023-02-17T22:52:30.895Z,102250.34
2023-02-17T22:54:58.865Z,102257.03
2023-02-17T22:57:26.628Z,102253.75
2023-02-17T22:59:55.722Z,102254.06
2023-02-17T23:02:23.525Z,102248.75
2023-02-17T23:04:51.290Z,102241.88
2023-02-17T23:07:19.081Z,102245.66
2023-02-17T23:09:47.044Z,102249.56
2023-02-17T23:12:14.734Z,102244.03
2023-02-17T23:14:42.501Z,102247.03
2023-02-17T23:17:14.287Z,102246.25
2023-02-17T23:19:42.764Z,102237.25
2023-02-17T23:22:15.849Z,102231.06
2023-02-17T23:24:44.079Z,102231.94
2023-02-17T23:27:12.299Z,102221.97
2023-02-17T23:29:41.714Z,102231.28
2023-02-17T23:32:11.210Z,102224.09
2023-02-17T23:34:40.296Z,102224.97
2023-02-17T23:37:08.027Z,102215.09
2023-02-17T23:39:37.513Z,102200.78
2023-02-17T23:42:05.438Z,102192.72
2023-02-17T23:44:33.341Z,102194.69
2023-02-17T23:47:01.092Z,102201.84
2023-02-17T23:49:30.283Z,102195.66
2023-02-17T23:51:58.037Z,102189.56
2023-02-17T23:54:26.055Z,102186.97
2023-02-17T23:56:53.785Z,102196.06
2023-02-17T23:59:21.498Z,102192.47
